createdAt,value
2018-03-14T00:01:56.969Z,100443
2018-03-14T00:04:25.075Z,100442
2018-03-14T00:06:54.122Z,100443
2018-03-14T00:09:22.205Z,100448
2018-03-14T00:11:50.290Z,100451
2018-03-14T00:14:18.387Z,100456
2018-03-14T00:16:46.472Z,100454
2018-03-14T00:19:14.590Z,100461
2018-03-14T00:21:42.719Z,100446
2018-03-14T00:24:10.836Z,100454
2018-03-14T00:26:40.923Z,100451
2018-03-14T00:29:10.438Z,100466
2018-03-14T00:31:40.389Z,100464
2018-03-14T00:34:09.388Z,100471
2018-03-14T00:36:37.485Z,100464
2018-03-14T00:39:06.745Z,100453
2018-03-14T00:41:35.955Z,100460
2018-03-14T00:44:04.085Z,100463
2018-03-14T00:46:32.369Z,100462
2018-03-14T00:49:00.475Z,100471
2018-03-14T00:51:29.396Z,100472
2018-03-14T00:53:57.707Z,100468
2018-03-14T00:56:27.428Z,100472
2018-03-14T00:58:55.520Z,100469
2018-03-14T01:01:23.627Z,100464
2018-03-14T01:03:52.502Z,100463
2018-03-14T01:06:20.612Z,100463
2018-03-14T01:08:49.394Z,100468
2018-03-14T01:11:19.038Z,100471
2018-03-14T01:13:47.231Z,100465
2018-03-14T01:16:15.555Z,100466
2018-03-14T01:18:45.981Z,100469
2018-03-14T01:21:14.158Z,100467
2018-03-14T01:23:42.273Z,100462
2018-03-14T01:26:11.110Z,100461
2018-03-14T01:28:39.229Z,100451
2018-03-14T01:31:08.713Z,100454
2018-03-14T01:33:36.819Z,100459
2018-03-14T01:36:04.903Z,100457
2018-03-14T01:38:33.556Z,100447
2018-03-14T01:41:01.653Z,100445
2018-03-14T01:43:29.741Z,100457
2018-03-14T01:45:57.854Z,100441
2018-03-14T01:48:25.959Z,100443
2018-03-14T01:50:54.539Z,100446
2018-03-14T01:53:28.619Z,100437
2018-03-14T01:55:56.735Z,100451
2018-03-14T01:58:24.863Z,100445
2018-03-14T02:00:52.956Z,100446
2018-03-14T02:03:21.062Z,100445
2018-03-14T02:05:49.194Z,100443
2018-03-14T02:08:17.297Z,100445
2018-03-14T02:10:46.997Z,100441
2018-03-14T02:13:15.873Z,100444
2018-03-14T02:15:43.976Z,100449
2018-03-14T02:18:12.097Z,100440
2018-03-14T02:20:40.886Z,100448
2018-03-14T02:23:08.982Z,100451
2018-03-14T02:25:37.095Z,100443
2018-03-14T02:28:05.199Z,100443
2018-03-14T02:30:33.297Z,100434
2018-03-14T02:33:08.193Z,100444
2018-03-14T02:35:37.445Z,100439
2018-03-14T02:38:05.547Z,100444
2018-03-14T02:40:33.672Z,100440
2018-03-14T02:43:04.370Z,100440
2018-03-14T02:45:33.970Z,100435
2018-03-14T02:48:02.278Z,100434
2018-03-14T02:50:34.354Z,100444
2018-03-14T02:53:02.449Z,100446
2018-03-14T02:55:31.022Z,100433
2018-03-14T02:57:59.131Z,100436
2018-03-14T03:00:27.233Z,100423
2018-03-14T03:02:55.335Z,100433
2018-03-14T03:05:23.555Z,100431
2018-03-14T03:07:53.238Z,100429
2018-03-14T03:10:21.399Z,100428
2018-03-14T03:12:49.635Z,100434
2018-03-14T03:15:18.943Z,100440
2018-03-14T03:17:47.807Z,100428
2018-03-14T03:20:17.371Z,100436
2018-03-14T03:22:46.313Z,100434
2018-03-14T03:25:14.479Z,100437
2018-03-14T03:27:42.583Z,100438
2018-03-14T03:30:14.532Z,100442
2018-03-14T03:32:44.187Z,100454
2018-03-14T03:35:14.128Z,100445
2018-03-14T03:37:44.155Z,100444
2018-03-14T03:40:12.502Z,100449
2018-03-14T03:42:40.587Z,100450
2018-03-14T03:45:08.697Z,100438
2018-03-14T03:47:39.363Z,100440
2018-03-14T03:50:07.452Z,100454
2018-03-14T03:52:35.535Z,100444
2018-03-14T03:55:03.624Z,100448
2018-03-14T03:57:31.975Z,100451
2018-03-14T04:00:00.390Z,100446
2018-03-14T04:02:28.463Z,100450
2018-03-14T04:04:56.919Z,100444
2018-03-14T04:07:25.728Z,100442
2018-03-14T04:09:53.822Z,100439
2018-03-14T04:12:22.100Z,100436
2018-03-14T04:14:50.186Z,100443
2018-03-14T04:17:18.291Z,100449
2018-03-14T04:19:46.372Z,100444
2018-03-14T04:22:15.904Z,100447
2018-03-14T04:24:47.489Z,100450
2018-03-14T04:27:15.607Z,100456
2018-03-14T04:29:43.706Z,100452
2018-03-14T04:32:11.789Z,100455
2018-03-14T04:34:39.901Z,100458
2018-03-14T04:37:09.756Z,100459
2018-03-14T04:39:39.708Z,100461
2018-03-14T04:42:08.994Z,100454
2018-03-14T04:44:38.586Z,100447
2018-03-14T04:47:08.994Z,100448
2018-03-14T04:49:37.880Z,100449
2018-03-14T04:52:06.073Z,100457
2018-03-14T04:54:34.171Z,100457
2018-03-14T04:57:03.860Z,100465
2018-03-14T04:59:36.533Z,100453
2018-03-14T05:02:04.633Z,100457
2018-03-14T05:04:32.966Z,100455
2018-03-14T05:07:02.840Z,100462
2018-03-14T05:09:30.938Z,100461
2018-03-14T05:11:59.038Z,100461
2018-03-14T05:14:27.917Z,100462
2018-03-14T05:16:56.010Z,100454
2018-03-14T05:19:24.124Z,100470
2018-03-14T05:21:52.264Z,100476
2018-03-14T05:24:21.151Z,100469
2018-03-14T05:26:50.456Z,100467
2018-03-14T05:29:19.528Z,100461
2018-03-14T05:31:47.619Z,100459
2018-03-14T05:34:16.300Z,100461
2018-03-14T05:36:44.396Z,100450
2018-03-14T05:39:12.497Z,100456
2018-03-14T05:41:40.599Z,100463
2018-03-14T05:44:09.502Z,100466
2018-03-14T05:46:37.590Z,100458
2018-03-14T05:49:05.722Z,100469
2018-03-14T05:51:34.430Z,100468
2018-03-14T05:54:02.872Z,100466
2018-03-14T05:56:30.980Z,100475
2018-03-14T05:58:59.455Z,100473
2018-03-14T06:01:28.370Z,100476
2018-03-14T06:03:56.474Z,100398
2018-03-14T06:06:24.585Z,100470
2018-03-14T06:08:53.572Z,100476
2018-03-14T06:11:21.672Z,100481
2018-03-14T06:13:49.958Z,100481
2018-03-14T06:16:18.053Z,100493
2018-03-14T06:18:47.019Z,100490
2018-03-14T06:21:15.567Z,100496
2018-03-14T06:23:44.267Z,100495
2018-03-14T06:26:12.352Z,100494
2018-03-14T06:28:41.367Z,100503
2018-03-14T06:31:11.604Z,100498
2018-03-14T06:33:40.563Z,100501
2018-03-14T06:36:08.643Z,100497
2018-03-14T06:38:36.793Z,100498
2018-03-14T06:41:05.948Z,100512
2018-03-14T06:43:34.896Z,100509
2018-03-14T06:46:04.638Z,100500
2018-03-14T06:48:34.200Z,100513
2018-03-14T06:51:03.656Z,100503
2018-03-14T06:53:31.740Z,100495
2018-03-14T06:55:59.959Z,100507
2018-03-14T07:01:55.964Z,100508
2018-03-14T07:07:34.352Z,100510
2018-03-14T07:10:02.444Z,100508
2018-03-14T07:12:30.580Z,100518
2018-03-14T07:14:58.713Z,100514
2018-03-14T07:17:26.943Z,100527
2018-03-14T07:19:55.919Z,100515
2018-03-14T07:22:24.121Z,100510
2018-03-14T07:24:52.788Z,100509
2018-03-14T07:27:20.861Z,100511
2018-03-14T07:29:49.940Z,100520
2018-03-14T07:32:19.657Z,100509
2018-03-14T07:34:48.396Z,100505
2018-03-14T07:37:16.616Z,100514
2018-03-14T07:39:47.919Z,100520
2018-03-14T07:42:20.125Z,100522
2018-03-14T07:44:48.248Z,100518
2018-03-14T07:47:16.443Z,100517
2018-03-14T07:49:45.529Z,100518
2018-03-14T07:52:13.856Z,100507
2018-03-14T07:54:42.966Z,100509
2018-03-14T07:57:14.451Z,100521
2018-03-14T07:59:42.784Z,100522
2018-03-14T08:02:10.881Z,100522
2018-03-14T08:04:39.739Z,100515
2018-03-14T08:07:07.831Z,100522
2018-03-14T08:09:35.934Z,100522
2018-03-14T08:12:05.004Z,100514
2018-03-14T08:14:33.206Z,100520
2018-03-14T08:17:01.355Z,100521
2018-03-14T08:19:30.403Z,100518
2018-03-14T08:21:58.544Z,100517
2018-03-14T08:24:27.419Z,100517
2018-03-14T08:26:55.638Z,100512
2018-03-14T08:29:23.733Z,100517
2018-03-14T08:31:51.827Z,100514
2018-03-14T08:34:20.090Z,100515
2018-03-14T08:36:48.188Z,100510
2018-03-14T08:39:16.359Z,100513
2018-03-14T08:41:44.633Z,100510
2018-03-14T08:44:13.600Z,100505
2018-03-14T08:46:41.927Z,100510
2018-03-14T08:49:11.000Z,100511
2018-03-14T08:51:39.932Z,100507
2018-03-14T08:54:08.172Z,100514
2018-03-14T08:56:37.276Z,100523
2018-03-14T08:59:06.111Z,100521
2018-03-14T09:01:37.108Z,100523
2018-03-14T09:04:07.706Z,100524
2018-03-14T09:06:36.758Z,100518
2018-03-14T09:09:05.629Z,100526
2018-03-14T09:11:34.736Z,100519
2018-03-14T09:14:02.896Z,100526
2018-03-14T09:16:31.118Z,100527
2018-03-14T09:18:59.380Z,100522
2018-03-14T09:21:28.290Z,100530
2018-03-14T09:23:56.597Z,100527
2018-03-14T09:26:26.401Z,100530
2018-03-14T09:28:54.590Z,100527
2018-03-14T09:31:24.755Z,100531
2018-03-14T09:33:52.866Z,100531
2018-03-14T09:36:21.319Z,100517
2018-03-14T09:38:49.591Z,100529
2018-03-14T09:41:20.551Z,100523
2018-03-14T09:43:48.745Z,100534
2018-03-14T09:46:17.362Z,100530
2018-03-14T09:48:45.491Z,100520
2018-03-14T09:51:13.931Z,100531
2018-03-14T09:53:42.890Z,100535
2018-03-14T09:56:11.835Z,100538
2018-03-14T09:58:39.937Z,100537
2018-03-14T10:01:08.032Z,100533
2018-03-14T10:03:36.173Z,100534
2018-03-14T10:06:04.552Z,100523
2018-03-14T10:08:34.583Z,100537
2018-03-14T10:11:02.932Z,100534
2018-03-14T10:13:31.035Z,100528
2018-03-14T10:15:59.208Z,100534
2018-03-14T10:18:28.147Z,100533
2018-03-14T10:20:56.284Z,100537
2018-03-14T10:23:24.370Z,100539
2018-03-14T10:25:52.893Z,100532
2018-03-14T10:28:21.015Z,100526
2018-03-14T10:30:49.100Z,100528
2018-03-14T10:33:17.286Z,100529
2018-03-14T10:35:45.359Z,100532
2018-03-14T10:38:13.447Z,100538
2018-03-14T10:40:42.335Z,100536
2018-03-14T10:43:10.452Z,100537
2018-03-14T10:45:38.590Z,100529
2018-03-14T10:48:06.680Z,100530
2018-03-14T10:50:35.024Z,100518
2018-03-14T10:53:03.124Z,100522
2018-03-14T10:55:31.211Z,100504
2018-03-14T10:57:59.341Z,100513
2018-03-14T11:00:27.443Z,100512
2018-03-14T11:03:01.436Z,100494
2018-03-14T11:05:30.608Z,100501
2018-03-14T11:07:58.723Z,100499
2018-03-14T11:10:26.819Z,100496
2018-03-14T11:12:54.893Z,100503
2018-03-14T11:15:23.006Z,100491
2018-03-14T11:17:51.108Z,100480
2018-03-14T11:20:19.215Z,100473
2018-03-14T11:22:47.317Z,100470
2018-03-14T11:25:15.481Z,100463
2018-03-14T11:27:44.895Z,100466
2018-03-14T11:30:13.036Z,100467
2018-03-14T11:32:41.116Z,100460
2018-03-14T11:35:09.266Z,100451
2018-03-14T11:37:37.939Z,100463
2018-03-14T11:40:06.268Z,100458
2018-03-14T11:42:35.176Z,100450
2018-03-14T11:45:05.320Z,100450
2018-03-14T11:47:33.656Z,100445
2018-03-14T11:50:02.736Z,100450
2018-03-14T11:52:30.990Z,100130
2018-03-14T11:54:59.121Z,100439
2018-03-14T11:57:27.220Z,100440
2018-03-14T11:59:55.337Z,100434
2018-03-14T12:02:23.450Z,100418
2018-03-14T12:04:52.503Z,100415
2018-03-14T12:07:20.657Z,100418
2018-03-14T12:09:49.717Z,100407
2018-03-14T12:12:17.898Z,100408
2018-03-14T12:14:46.033Z,100403
2018-03-14T12:17:15.217Z,100401
2018-03-14T12:19:43.381Z,100393
2018-03-14T12:22:17.039Z,100381
2018-03-14T12:24:45.173Z,100383
2018-03-14T12:27:13.265Z,100369
2018-03-14T12:29:41.355Z,100369
2018-03-14T12:32:09.504Z,100371
2018-03-14T12:34:37.555Z,100354
2018-03-14T12:37:05.660Z,100346
2018-03-14T12:39:33.776Z,100346
2018-03-14T12:42:01.966Z,100335
2018-03-14T12:44:31.226Z,100325
2018-03-14T12:46:59.306Z,100321
2018-03-14T12:49:27.421Z,100311
2018-03-14T12:51:55.508Z,100307
2018-03-14T12:54:23.632Z,100313
2018-03-14T12:56:51.785Z,100311
2018-03-14T12:59:20.440Z,100300
2018-03-14T13:01:49.547Z,100302
2018-03-14T13:04:17.817Z,100288
2018-03-14T13:06:47.303Z,100276
2018-03-14T13:09:16.226Z,100270
2018-03-14T13:11:44.399Z,100260
2018-03-14T13:14:12.543Z,100257
2018-03-14T13:16:40.654Z,100260
2018-03-14T13:19:09.712Z,100259
2018-03-14T13:21:38.606Z,100247
2018-03-14T13:24:07.491Z,100247
2018-03-14T13:26:35.743Z,100241
2018-03-14T13:29:03.840Z,100238
2018-03-14T13:31:32.719Z,100250
2018-03-14T13:34:00.902Z,100235
2018-03-14T13:36:29.820Z,100232
2018-03-14T13:38:57.916Z,100220
2018-03-14T13:41:26.955Z,100223
2018-03-14T13:43:55.061Z,100212
2018-03-14T13:46:23.155Z,100209
2018-03-14T13:48:51.266Z,100204
2018-03-14T13:51:20.284Z,100197
2018-03-14T13:53:50.356Z,100190
2018-03-14T13:56:18.554Z,100187
2018-03-14T13:58:46.761Z,100185
2018-03-14T14:01:15.036Z,100175
2018-03-14T14:03:44.129Z,100173
2018-03-14T14:06:13.319Z,100163
2018-03-14T14:08:41.554Z,100181
2018-03-14T14:11:09.661Z,100167
2018-03-14T14:13:38.547Z,100168
2018-03-14T14:16:06.752Z,100165
2018-03-14T14:18:34.915Z,100165
2018-03-14T14:21:03.124Z,100149
2018-03-14T14:23:31.397Z,100162
2018-03-14T14:26:01.492Z,100155
2018-03-14T14:28:29.688Z,100153
2018-03-14T14:30:57.903Z,100157
2018-03-14T14:33:25.986Z,100163
2018-03-14T14:35:54.403Z,100163
2018-03-14T14:38:22.587Z,100152
2018-03-14T14:40:50.875Z,100149
2018-03-14T14:43:19.934Z,100145
2018-03-14T14:45:48.086Z,100146
2018-03-14T14:48:16.311Z,100138
2018-03-14T14:50:44.509Z,100141
2018-03-14T14:53:12.731Z,100135
2018-03-14T14:55:41.606Z,100127
2018-03-14T14:58:10.534Z,100129
2018-03-14T15:00:38.700Z,100126
2018-03-14T15:03:06.860Z,100115
2018-03-14T15:05:35.877Z,100115
2018-03-14T15:08:04.054Z,100100
2018-03-14T15:10:32.409Z,100099
2018-03-14T15:13:01.300Z,100101
2018-03-14T15:15:30.279Z,100099
2018-03-14T15:17:58.529Z,100098
2018-03-14T15:20:26.874Z,100096
2018-03-14T15:22:55.129Z,100091
2018-03-14T15:25:25.040Z,100087
2018-03-14T15:27:53.962Z,100083
2018-03-14T15:30:22.425Z,100073
2018-03-14T15:32:50.614Z,100078
2018-03-14T15:35:19.794Z,100067
2018-03-14T15:37:47.995Z,100070
2018-03-14T15:40:16.885Z,100057
2018-03-14T15:42:45.132Z,100067
2018-03-14T15:45:13.240Z,100055
2018-03-14T15:47:41.524Z,100060
2018-03-14T15:50:09.936Z,100061
2018-03-14T15:52:38.573Z,100062
2018-03-14T15:55:06.699Z,100065
2018-03-14T15:57:34.896Z,100061
2018-03-14T16:00:03.002Z,100056
2018-03-14T16:02:31.158Z,100056
2018-03-14T16:04:59.265Z,100054
2018-03-14T16:07:27.474Z,100056
2018-03-14T16:09:56.502Z,100065
2018-03-14T16:12:24.692Z,100050
2018-03-14T16:14:53.512Z,100059
2018-03-14T16:17:21.681Z,100062
2018-03-14T16:19:49.783Z,100057
2018-03-14T16:22:17.964Z,100062
2018-03-14T16:24:46.838Z,100063
2018-03-14T16:27:15.741Z,100059
2018-03-14T16:29:45.562Z,100062
2018-03-14T16:32:15.597Z,100067
2018-03-14T16:34:43.716Z,100060
2018-03-14T16:37:11.835Z,100062
2018-03-14T16:39:40.708Z,100056
2018-03-14T16:42:09.704Z,100060
2018-03-14T16:44:38.451Z,100045
2018-03-14T16:47:06.536Z,100051
2018-03-14T16:49:34.762Z,100057
2018-03-14T16:52:02.972Z,100050
2018-03-14T16:54:40.898Z,100051
2018-03-14T16:57:18.661Z,100043
2018-03-14T17:00:03.413Z,100046
2018-03-14T17:02:31.852Z,100040
2018-03-14T17:05:00.082Z,100043
2018-03-14T17:07:28.192Z,100050
2018-03-14T17:09:56.393Z,100040
2018-03-14T17:12:24.501Z,100045
2018-03-14T17:17:53.713Z,100027
2018-03-14T17:20:22.368Z,100036
2018-03-14T17:22:50.516Z,100023
2018-03-14T17:25:19.604Z,100031
2018-03-14T17:27:47.768Z,100024
2018-03-14T17:30:16.893Z,100026
2018-03-14T17:32:45.049Z,100025
2018-03-14T17:35:13.248Z,100027
2018-03-14T17:37:42.425Z,100023
2018-03-14T17:40:10.873Z,100023
2018-03-14T17:42:39.014Z,100027
2018-03-14T17:45:07.580Z,100030
2018-03-14T17:47:36.579Z,100024
2018-03-14T17:50:11.599Z,100019
2018-03-14T17:52:39.793Z,100019
2018-03-14T17:55:07.954Z,100010
2018-03-14T17:57:36.855Z,100016
2018-03-14T18:00:05.049Z,100001
2018-03-14T18:02:33.138Z,100007
2018-03-14T18:05:01.309Z,100003
2018-03-14T18:07:29.432Z,99994
2018-03-14T18:09:58.520Z,100001
2018-03-14T18:12:27.464Z,99994
2018-03-14T18:15:04.319Z,99980
2018-03-14T18:17:32.572Z,99992
2018-03-14T18:20:02.497Z,99986
2018-03-14T18:22:31.784Z,99989
2018-03-14T18:25:01.723Z,99989
2018-03-14T18:27:30.908Z,99987
2018-03-14T18:30:04.344Z,99970
2018-03-14T18:32:37.054Z,99976
2018-03-14T18:35:09.365Z,99963
2018-03-14T18:37:38.246Z,99959
2018-03-14T18:40:07.141Z,99955
2018-03-14T18:42:35.322Z,99957
2018-03-14T18:45:03.423Z,99966
2018-03-14T18:47:31.538Z,99940
2018-03-14T18:49:59.647Z,99936
2018-03-14T18:52:27.893Z,99928
2018-03-14T18:54:56.107Z,99929
2018-03-14T18:57:24.267Z,99931
2018-03-14T18:59:52.433Z,99929
2018-03-14T19:02:21.591Z,99919
2018-03-14T19:04:51.758Z,99916
2018-03-14T19:07:19.921Z,99903
2018-03-14T19:09:48.102Z,99908
2018-03-14T19:12:16.726Z,99915
2018-03-14T19:14:44.822Z,99916
2018-03-14T19:17:12.895Z,99918
2018-03-14T19:19:41.093Z,99907
2018-03-14T19:22:09.286Z,99907
2018-03-14T19:24:37.378Z,99894
2018-03-14T19:27:05.523Z,99894
2018-03-14T19:29:34.396Z,99897
2018-03-14T19:32:02.581Z,99891
2018-03-14T19:34:32.534Z,99884
2018-03-14T19:37:00.700Z,99877
2018-03-14T19:39:29.003Z,99877
2018-03-14T19:41:57.945Z,99862
2018-03-14T19:44:26.016Z,99872
2018-03-14T19:46:54.157Z,99874
2018-03-14T19:49:30.410Z,99872
2018-03-14T19:51:58.621Z,99883
2018-03-14T19:54:29.865Z,99875
2018-03-14T19:56:58.166Z,99868
2018-03-14T19:59:26.491Z,99872
2018-03-14T20:01:54.860Z,99873
2018-03-14T20:04:23.038Z,99864
2018-03-14T20:06:51.707Z,99860
2018-03-14T20:09:25.387Z,99867
2018-03-14T20:11:56.797Z,99865
2018-03-14T20:14:26.827Z,99863
2018-03-14T20:16:55.040Z,99859
2018-03-14T20:19:25.154Z,99856
2018-03-14T20:21:54.218Z,99853
2018-03-14T20:24:22.378Z,99845
2018-03-14T20:26:50.488Z,99855
2018-03-14T20:29:18.643Z,99851
2018-03-14T20:31:47.540Z,99834
2018-03-14T20:34:16.455Z,99833
2018-03-14T20:36:44.538Z,99826
2018-03-14T20:39:12.624Z,99824
2018-03-14T20:41:40.830Z,99825
2018-03-14T20:44:08.934Z,99826
2018-03-14T20:46:37.069Z,99829
2018-03-14T20:49:05.174Z,99823
2018-03-14T20:51:33.312Z,99823
2018-03-14T20:54:01.410Z,99820
2018-03-14T20:56:30.302Z,99829
2018-03-14T21:02:52.875Z,99817
2018-03-14T21:11:59.550Z,99795
2018-03-14T21:14:39.485Z,99793
2018-03-14T21:17:27.294Z,99784
2018-03-14T21:20:06.907Z,99783
2018-03-14T21:22:39.715Z,99784
2018-03-14T21:25:21.118Z,99788
2018-03-14T21:27:56.871Z,99779
2018-03-14T21:31:01.607Z,99771
2018-03-14T21:33:54.118Z,99762
2018-03-14T21:39:46.089Z,99758
2018-03-14T21:42:15.437Z,99758
2018-03-14T21:44:45.445Z,99750
2018-03-14T21:49:49.733Z,99739
2018-03-14T21:52:19.991Z,99743
2018-03-14T21:54:48.436Z,99733
2018-03-14T21:57:20.554Z,99731
2018-03-14T21:59:49.821Z,99734
2018-03-14T22:02:19.262Z,99739
2018-03-14T22:04:48.170Z,99733
2018-03-14T22:09:52.431Z,99713
2018-03-14T22:12:22.494Z,99719
2018-03-14T22:14:53.090Z,99714
2018-03-14T22:17:24.128Z,99713
2018-03-14T22:19:54.213Z,99709
2018-03-14T22:22:24.458Z,99710
2018-03-14T22:24:58.477Z,99713
2018-03-14T22:27:26.687Z,99710
2018-03-14T22:29:54.807Z,99707
2018-03-14T22:32:22.957Z,99706
2018-03-14T22:34:52.623Z,99680
2018-03-14T22:37:20.731Z,99711
2018-03-14T22:39:48.814Z,99712
2018-03-14T22:42:16.910Z,99715
2018-03-14T22:44:44.989Z,99709
2018-03-14T22:47:13.440Z,99704
2018-03-14T22:49:41.837Z,99704
2018-03-14T22:52:09.923Z,99706
2018-03-14T22:54:38.025Z,99709
2018-03-14T22:57:06.121Z,99691
2018-03-14T22:59:34.198Z,99681
2018-03-14T23:02:02.634Z,99680
2018-03-14T23:04:30.726Z,99675
2018-03-14T23:06:59.550Z,99673
2018-03-14T23:09:28.164Z,99670
2018-03-14T23:11:56.577Z,99671
2018-03-14T23:14:24.662Z,99668
2018-03-14T23:16:52.744Z,99657
2018-03-14T23:19:20.854Z,99644
2018-03-14T23:21:49.055Z,99641
2018-03-14T23:24:17.171Z,99637
2018-03-14T23:26:45.257Z,99645
2018-03-14T23:29:13.356Z,99636
2018-03-14T23:31:41.440Z,99630
2018-03-14T23:34:09.542Z,99629
2018-03-14T23:36:37.638Z,99629
2018-03-14T23:39:05.746Z,99627
2018-03-14T23:41:33.843Z,99617
2018-03-14T23:44:01.920Z,99622
2018-03-14T23:46:30.068Z,99605
2018-03-14T23:48:58.221Z,99601
2018-03-14T23:51:27.066Z,99596
2018-03-14T23:53:55.168Z,99581
2018-03-14T23:56:23.292Z,99591
2018-03-14T23:58:52.732Z,99575
